EW8182 Weather Reports


Display with metric or nautical units.
time (UTC)temp
F
wind
direction
speed
MPH
gust
MPH
rain 1hr
in
rain 24hr
in
rain mn
in
humidity
%
barometer
mb
20190120054026 20 306 7.0 18.0 0.00 0.87 0.00 94 1003.3
20190120053526 20 334 7.0 17.0 0.00 0.87 0.00 94 1003.4
20190120053026 20 338 10.0 19.0 0.00 0.87 0.00 93 1003.3
20190120052526 20 304 12.0 20.0 0.00 0.87 0.00 94 1002.9
20190120052026 20 338 11.0 20.0 0.00 0.87 0.00 94 1002.7
20190120051526 21 36 10.0 20.0 0.00 0.87 0.00 94 1002.8
20190120051026 21 335 11.0 24.0 0.00 0.87 0.00 94 1002.8
20190120050526 21 345 12.0 24.0 0.00 0.87 0.00 93 1002.6
20190120050024 21 340 11.0 21.0 0.00 0.87 0.00 93 1002.3
20190120045521 21 355 11.0 21.0 0.00 0.87 0.87 94 1002.5
20190120045021 21 0 12.0 22.0 0.00 0.87 0.87 94 1002.3
20190120044521 21 342 10.0 22.0 0.00 0.87 0.87 93 1002.2
20190120044022 22 344 10.0 20.0 0.00 0.88 0.87 94 1002.5
20190120043522 22 325 11.0 27.0 0.00 0.88 0.87 94 1002.0
20190120043022 22 339 12.0 22.0 0.00 0.88 0.87 93 1002.2
20190120042522 22 341 11.0 21.0 0.00 0.88 0.87 93 1002.3
20190120042021 22 348 8.0 20.0 0.00 0.88 0.87 93 1002.3
20190120041522 22 334 8.0 16.0 0.00 0.88 0.87 93 1002.3
20190120041021 22 10 10.0 19.0 0.00 0.88 0.87 93 1002.3
20190120040521 22 342 10.0 19.0 0.00 0.88 0.87 93 1002.0
20190120040022 23 355 10.0 16.0 0.00 0.88 0.87 93 1001.9
20190120035521 23 0 12.0 26.0 0.00 0.88 0.87 93 1001.8
20190120035022 23 0 13.0 26.0 0.00 0.88 0.87 92 1001.7
20190120034521 23 13 13.0 22.0 0.00 0.88 0.87 92 1001.3
20190120034022 23 9 12.0 22.0 0.00 0.88 0.87 92 1001.2
20190120033520 23 346 12.0 22.0 0.00 0.88 0.87 92 1001.1
20190120033019 23 331 14.0 23.0 0.00 0.88 0.87 92 1000.9
20190120032519 24 336 13.0 23.0 0.00 0.88 0.87 92 1000.7
20190120032019 24 355 13.0 26.0 0.00 0.88 0.87 92 1000.5
20190120031519 24 329 14.0 26.0 0.00 0.88 0.87 92 1000.3
20190120031019 24 340 14.0 24.0 0.00 0.88 0.87 93 1000.2
20190120030519 24 343 15.0 24.0 0.00 0.88 0.87 93 1000.2
20190120030019 24 9 15.0 27.0 0.00 0.88 0.87 93 1000.1
20190120025520 24 0 14.0 27.0 0.00 0.88 0.87 93 999.9
20190120025020 24 5 13.0 21.0 0.00 0.88 0.87 93 1000.3
20190120024518 24 342 13.0 21.0 0.00 0.88 0.87 93 1000.4
20190120024017 24 342 14.0 24.0 0.00 0.88 0.87 93 1000.5
20190120023517 25 19 14.0 24.0 0.00 0.88 0.87 93 1000.7
20190120023017 25 355 12.0 22.0 0.00 0.88 0.87 93 1000.9
20190120022517 25 349 12.0 22.0 0.00 0.88 0.87 93 1000.7
20190120022017 26 355 12.0 22.0 0.00 0.88 0.87 93 1000.6
20190120021517 26 342 10.0 20.0 0.00 0.88 0.87 93 1000.3
20190120021017 27 0 9.0 20.0 0.00 0.88 0.87 93 1000.5
20190120020517 28 346 11.0 20.0 0.00 0.88 0.87 93 1000.7
20190120020017 28 330 11.0 21.0 0.00 0.88 0.87 93 1000.5
20190120015517 29 355 9.0 21.0 0.00 0.88 0.87 93 1000.5
20190120015014 29 329 4.0 17.0 0.00 0.88 0.87 93 1000.6
20190120014515 29 333 0.0 0.0 0.00 0.88 0.87 93 1000.8
20190120014015 30 350 0.0 0.0 0.00 0.88 0.87 93 1000.7
20190120013516 30 344 0.0 0.0 0.00 0.88 0.87 93 1000.6
20190120013015 31 355 0.0 0.0 0.00 0.88 0.87 93 1000.5
20190120012515 31 341 0.0 0.0 0.00 0.88 0.87 93 1000.5
20190120012015 31 343 0.0 0.0 0.00 0.88 0.87 93 1000.4
20190120011515 31 320 0.0 7.0 0.00 0.88 0.87 94 1000.5
20190120011015 31 334 5.0 17.0 0.00 0.88 0.87 94 1000.4
20190120010514 31 5 9.0 17.0 0.00 0.88 0.87 94 1000.2
20190120010013 31 344 9.0 16.0 0.00 0.88 0.87 94 999.8
20190120005513 31 14 10.0 21.0 0.00 0.88 0.87 94 999.4
20190120005013 31 355 11.0 22.0 0.00 0.88 0.87 94 999.1
20190120004513 32 5 12.0 22.0 0.00 0.88 0.87 93 999.2
20190120004014 32 13 12.0 21.0 0.00 0.88 0.87 93 999.3
20190120003512 32 23 13.0 20.0 0.00 0.88 0.87 93 999.2
20190120003013 32 13 12.0 21.0 0.01 0.88 0.87 93 999.4
20190120002513 32 0 11.0 21.0 0.01 0.88 0.87 93 999.5
20190120002017 31 355 11.0 19.0 0.01 0.88 0.87 93 998.8
20190120002012 32 34 10.0 19.0 0.01 0.88 0.87 93 999.3
20190120001518 31 355 11.0 19.0 0.01 0.88 0.87 93 998.8
20190120001011 31 16 14.0 23.0 0.02 0.88 0.87 93 998.2
20190120000511 31 0 15.0 25.0 0.03 0.88 0.87 93 998.4
20190120000011 31 5 15.0 25.0 0.03 0.88 0.87 93 998.4
20190119235511 31 23 15.0 21.0 0.04 0.88 0.87 93 998.0
20190119235010 31 33 15.0 23.0 0.05 0.88 0.87 93 997.9
20190119234512 32 19 15.0 23.0 0.06 0.88 0.87 93 997.5
20190119234011 32 355 14.0 23.0 0.08 0.88 0.87 94 997.9
20190119233511 32 23 13.0 20.0 0.09 0.88 0.87 94 998.5
20190119233011 32 14 13.0 20.0 0.09 0.87 0.86 94 998.9
20190119232510 32 19 14.0 20.0 0.10 0.87 0.86 94 999.3
20190119232011 32 28 13.0 20.0 0.11 0.87 0.86 94 999.3
20190119231511 32 23 12.0 19.0 0.12 0.87 0.86 95 999.6
20190119231010 33 14 12.0 19.0 0.13 0.86 0.85 95 999.5
20190119230510 33 22 13.0 20.0 0.13 0.85 0.84 94 999.7
20190119230011 33 14 14.0 20.0 0.14 0.85 0.84 94 999.9
20190119225510 33 17 12.0 20.0 0.14 0.84 0.83 95 1000.0
20190119225010 33 25 10.0 15.0 0.14 0.83 0.82 95 1000.3
20190119224510 33 5 11.0 18.0 0.14 0.82 0.81 95 1000.4
20190119224010 33 0 12.0 18.0 0.13 0.80 0.79 95 1000.2
20190119223510 33 9 12.0 19.0 0.13 0.79 0.78 95 999.9
20190119223011 33 13 13.0 19.0 0.13 0.78 0.77 95 999.8
20190119222511 33 16 14.0 22.0 0.12 0.77 0.76 95 999.8
20190119222010 33 342 13.0 22.0 0.11 0.76 0.75 95 999.8
20190119221510 33 355 12.0 18.0 0.11 0.75 0.74 95 999.8
20190119221011 33 24 11.0 18.0 0.10 0.73 0.73 95 999.9
20190119220511 33 0 12.0 20.0 0.09 0.72 0.72 95 1000.1
20190119220010 33 13 13.0 20.0 0.09 0.71 0.70 95 1000.2
20190119215510 33 14 13.0 22.0 0.09 0.70 0.70 95 1000.2
20190119215008 33 30 12.0 22.0 0.08 0.69 0.68 95 1000.1
20190119214508 33 50 11.0 21.0 0.08 0.68 0.67 95 1000.0
20190119214009 33 26 11.0 20.0 0.07 0.67 0.66 95 1000.1
20190119213509 33 15 11.0 19.0 0.07 0.66 0.65 95 999.9
20190119213009 34 63 12.0 18.0 0.06 0.65 0.64 95 1000.1
20190119212506 34 14 11.0 18.0 0.06 0.65 0.64 96 1000.1
20190119212003 34 5 11.0 17.0 0.07 0.65 0.64 96 1000.0
20190119211503 34 26 11.0 17.0 0.06 0.64 0.63 96 1000.1
20190119211002 34 16 11.0 18.0 0.06 0.63 0.63 96 999.9
20190119210503 34 19 12.0 19.0 0.06 0.63 0.62 96 1000.1
20190119210003 34 5 12.0 19.0 0.05 0.62 0.61 96 1000.2
20190119205503 34 14 11.0 17.0 0.05 0.61 0.61 96 1000.3
20190119205001 34 11 11.0 16.0 0.05 0.61 0.60 96 1000.2
20190119204500 34 32 10.0 16.0 0.04 0.60 0.59 96 1000.3
20190119204000 34 14 11.0 18.0 0.05 0.60 0.59 96 1000.3
20190119203506 34 22 12.0 18.0 0.04 0.59 0.58 96 1000.3
20190119203000 34 25 11.0 16.0 0.04 0.59 0.58 96 1000.3
20190119202500 34 31 11.0 16.0 0.04 0.59 0.58 96 1000.4
20190119202000 34 44 10.0 15.0 0.04 0.58 0.57 96 1000.3
20190119201500 34 45 9.0 14.0 0.04 0.58 0.57 96 1000.2
20190119201000 34 20 9.0 14.0 0.03 0.57 0.56 96 1000.4
20190119200458 34 51 9.0 14.0 0.04 0.57 0.56 96 1000.2
20190119195958 34 26 9.0 14.0 0.04 0.57 0.56 96 1000.2
20190119195458 34 33 9.0 14.0 0.03 0.56 0.55 96 1000.5
20190119194958 34 36 8.0 14.0 0.04 0.56 0.55 96 1000.5
20190119194458 34 19 9.0 15.0 0.06 0.56 0.55 96 1000.8
20190119193958 34 38 10.0 15.0 0.06 0.55 0.54 96 1000.9
20190119193458 34 36 9.0 15.0 0.08 0.55 0.54 96 1001.0
20190119193000 34 15 8.0 12.0 0.09 0.55 0.54 96 1001.0
20190119192458 34 19 8.0 14.0 0.11 0.55 0.54 96 1001.1
20190119191958 34 61 8.0 14.0 0.11 0.54 0.54 96 1001.1
20190119191456 34 49 6.0 12.0 0.13 0.54 0.53 96 1001.2
20190119190957 34 80 6.0 16.0 0.14 0.54 0.53 96 1001.5
20190119190456 34 80 10.0 18.0 0.14 0.53 0.52 96 1001.5
20190119185956 34 25 11.0 18.0 0.15 0.53 0.52 96 1001.2
20190119185455 34 44 11.0 17.0 0.16 0.53 0.52 96 1001.6
20190119184956 34 44 12.0 18.0 0.15 0.52 0.51 96 1001.9
20190119184455 34 17 11.0 18.0 0.13 0.50 0.49 96 1002.0
20190119183955 34 28 9.0 16.0 0.13 0.49 0.48 96 1002.1
20190119183456 34 48 8.0 15.0 0.11 0.47 0.46 96 1002.5
20190119182956 34 5 8.0 15.0 0.11 0.46 0.45 96 1002.6
20190119182454 34 38 8.0 13.0 0.09 0.44 0.44 96 1002.5
20190119181954 34 32 7.0 12.0 0.09 0.43 0.42 96 1002.7
20190119181454 34 50 5.0 11.0 0.08 0.41 0.40 96 1003.0
20190119180954 34 37 5.0 9.0 0.08 0.40 0.39 96 1003.1
20190119180454 34 36 5.0 11.0 0.08 0.39 0.38 96 1003.2
20190119175954 34 42 5.0 11.0 0.08 0.38 0.37 96 1003.3
20190119175453 34 46 6.0 14.0 0.08 0.37 0.36 96 1003.4
20190119174953 34 47 6.0 14.0 0.08 0.37 0.36 96 1003.5
20190119174454 34 42 6.0 12.0 0.10 0.37 0.36 96 1003.7
20190119173953 34 70 7.0 12.0 0.11 0.36 0.35 96 1003.9
20190119173454 34 35 6.0 10.0 0.12 0.36 0.35 96 1004.0
20190119172954 34 75 6.0 10.0 0.12 0.35 0.34 96 1004.2
20190119172454 34 79 6.0 10.0 0.13 0.35 0.34 96 1004.4
20190119171954 34 72 6.0 11.0 0.13 0.34 0.34 96 1004.6
20190119171454 34 74 5.0 11.0 0.13 0.33 0.32 96 1004.7
20190119170954 34 70 4.0 10.0 0.13 0.32 0.31 95 1004.9
20190119170453 34 84 3.0 7.0 0.13 0.31 0.30 96 1005.3
20190119165954 34 57 5.0 10.0 0.13 0.30 0.29 95 1005.3
20190119165454 34 61 6.0 12.0 0.13 0.29 0.29 96 1005.3
20190119164954 34 90 6.0 12.0 0.14 0.29 0.28 95 1005.4
20190119164453 34 68 7.0 14.0 0.12 0.27 0.26 95 1005.5
20190119163953 34 42 8.0 15.0 0.11 0.25 0.25 95 1005.6
20190119163454 34 63 8.0 16.0 0.10 0.24 0.23 95 1005.6
20190119162954 34 68 9.0 16.0 0.10 0.23 0.22 95 1005.7
20190119162453 34 67 9.0 16.0 0.09 0.22 0.21 95 1005.8
20190119161953 34 87 10.0 16.0 0.09 0.21 0.20 95 1005.8
20190119161453 34 68 10.0 16.0 0.09 0.20 0.19 95 1006.0
20190119160953 34 78 10.0 17.0 0.08 0.19 0.18 95 1006.0
20190119160454 34 53 10.0 17.0 0.08 0.18 0.17 95 1006.1
20190119155956 34 63 10.0 16.0 0.07 0.17 0.16 95 1006.2
20190119155453 34 61 9.0 14.0 0.06 0.16 0.15 95 1006.3
20190119154953 33 81 10.0 19.0 0.06 0.15 0.14 95 1006.2
20190119154454 33 76 10.0 19.0 0.06 0.15 0.14 95 1006.3
20190119153951 33 65 10.0 15.0 0.05 0.14 0.13 95 1006.2
20190119153451 33 55 10.0 15.0 0.05 0.14 0.13 94 1006.3
20190119152951 33 86 10.0 15.0 0.04 0.13 0.12 94 1006.4
20190119152452 33 77 9.0 14.0 0.04 0.13 0.12 94 1006.8
20190119151952 33 82 9.0 14.0 0.03 0.12 0.11 94 1007.1
20190119151450 33 78 9.0 14.0 0.03 0.11 0.10 94 1007.3
20190119150949 33 82 9.0 14.0 0.03 0.11 0.10 94 1007.4
20190119150449 33 80 9.0 14.0 0.03 0.10 0.09 94 1007.4
20190119145949 33 106 9.0 13.0 0.03 0.10 0.09 94 1007.4
20190119145449 33 84 9.0 15.0 0.04 0.10 0.09 94 1007.6
20190119144949 33 57 10.0 16.0 0.03 0.09 0.08 94 1007.5
20190119144450 33 68 11.0 17.0 0.04 0.09 0.08 94 1007.4
20190119143949 33 57 11.0 17.0 0.05 0.09 0.08 94 1007.5
20190119143448 33 19 11.0 17.0 0.05 0.09 0.08 94 1007.7
20190119142947 33 38 10.0 15.0 0.06 0.09 0.08 94 1007.9
20190119142447 33 51 10.0 16.0 0.06 0.09 0.08 94 1008.0
20190119141947 33 69 11.0 19.0 0.07 0.09 0.08 94 1008.0
20190119141447 33 54 10.0 19.0 0.06 0.08 0.08 94 1008.2
20190119140947 33 64 10.0 15.0 0.07 0.08 0.07 94 1008.4
20190119140447 33 87 10.0 15.0 0.06 0.07 0.07 94 1008.9
20190119135947 33 71 10.0 16.0 0.06 0.07 0.06 93 1009.0
20190119135447 33 80 9.0 16.0 0.05 0.06 0.05 93 1009.3
20190119134947 33 74 10.0 15.0 0.05 0.06 0.05 93 1009.5
20190119134447 33 72 10.0 15.0 0.04 0.05 0.04 93 1009.6
20190119133945 33 80 10.0 18.0 0.03 0.04 0.03 93 1009.7
20190119133445 33 75 11.0 18.0 0.03 0.04 0.03 93 1009.7
20190119132945 33 80 10.0 15.0 0.02 0.03 0.02 93 1009.8
20190119132445 33 85 10.0 15.0 0.02 0.03 0.02 92 1009.8
20190119131945 33 83 10.0 15.0 0.01 0.02 0.01 92 1009.7
20190119131445 33 90 10.0 15.0 0.01 0.02 0.01 92 1009.7
20190119130945 33 78 10.0 17.0 0.00 0.01 0.00 92 1009.8
20190119130445 33 89 10.0 17.0 0.00 0.01 0.00 92 1009.7
20190119125945 33 72 10.0 17.0 0.00 0.01 0.00 91 1009.9
20190119125444 33 67 9.0 17.0 0.00 0.01 0.00 91 1009.9
20190119124945 33 80 10.0 16.0 0.00 0.01 0.00 91 1009.7
20190119124445 33 71 11.0 18.0 0.00 0.01 0.00 91 1009.7
20190119123945 33 63 11.0 20.0 0.00 0.01 0.00 91 1009.5
20190119123445 33 98 11.0 20.0 0.00 0.01 0.00 91 1009.4
20190119122946 33 74 10.0 16.0 0.00 0.01 0.00 91 1009.5
20190119122445 33 90 10.0 16.0 0.00 0.01 0.00 91 1009.6
20190119121945 33 71 11.0 16.0 0.00 0.01 0.00 91 1009.6
20190119121444 33 75 11.0 16.0 0.00 0.01 0.00 91 1009.8
20190119120944 33 76 11.0 17.0 0.00 0.01 0.00 91 1009.8
20190119120443 33 68 11.0 17.0 0.00 0.01 0.00 91 1010.0
20190119115942 33 84 10.0 18.0 0.00 0.01 0.00 91 1010.0
20190119115443 33 86 9.0 18.0 0.00 0.01 0.00 91 1010.1
20190119114943 33 86 10.0 16.0 0.00 0.01 0.00 91 1010.2
20190119114443 33 76 10.0 16.0 0.00 0.01 0.00 91 1010.3
20190119113943 33 96 10.0 15.0 0.00 0.01 0.00 91 1010.5
20190119113442 33 83 9.0 15.0 0.00 0.01 0.00 91 1010.7
20190119112942 33 60 9.0 15.0 0.00 0.01 0.00 91 1010.7
20190119112452 33 73 9.0 15.0 0.00 0.01 0.00 90 1010.8
20190119111944 33 65 10.0 15.0 0.00 0.01 0.00 90 1011.1
20190119111442 33 86 10.0 19.0 0.00 0.01 0.00 90 1011.2
20190119110943 33 83 9.0 19.0 0.00 0.01 0.00 90 1011.4
20190119110442 33 99 9.0 14.0 0.00 0.01 0.00 90 1011.6
20190119105942 33 63 8.0 14.0 0.00 0.01 0.00 90 1011.7
20190119105443 33 80 8.0 14.0 0.00 0.01 0.00 90 1011.8
20190119104943 33 78 8.0 13.0 0.00 0.01 0.00 90 1012.0
20190119104443 33 63 8.0 14.0 0.00 0.01 0.00 90 1012.2
20190119103943 33 59 9.0 14.0 0.00 0.01 0.00 90 1012.3
20190119103442 33 71 8.0 13.0 0.00 0.01 0.00 90 1012.1
20190119102943 33 72 8.0 14.0 0.00 0.01 0.00 90 1012.0
20190119102443 33 91 9.0 16.0 0.00 0.01 0.00 90 1012.0
20190119101942 33 78 10.0 16.0 0.00 0.01 0.00 90 1011.9
20190119101442 33 52 9.0 15.0 0.00 0.01 0.00 90 1011.9
20190119100942 33 78 9.0 15.0 0.00 0.01 0.00 90 1012.0
20190119100443 33 88 9.0 14.0 0.00 0.01 0.00 90 1012.0
20190119095943 33 65 10.0 17.0 0.00 0.01 0.00 90 1012.0
20190119095443 33 67 10.0 17.0 0.00 0.01 0.00 90 1012.1
20190119094943 33 73 10.0 15.0 0.00 0.01 0.00 91 1012.2
20190119094442 33 79 9.0 13.0 0.00 0.01 0.00 91 1012.4
20190119093942 33 75 8.0 13.0 0.00 0.01 0.00 91 1012.6
20190119093442 33 98 8.0 13.0 0.00 0.01 0.00 90 1013.2
20190119092942 33 71 8.0 12.0 0.00 0.01 0.00 90 1013.4
20190119092440 33 91 8.0 14.0 0.00 0.01 0.00 90 1013.7
20190119091940 33 74 8.0 14.0 0.00 0.01 0.00 90 1013.6
20190119091441 33 72 7.0 12.0 0.00 0.01 0.00 89 1014.0
20190119090941 34 59 6.0 12.0 0.00 0.01 0.00 89 1014.3
20190119090442 34 98 7.0 12.0 0.00 0.01 0.00 89 1014.5
20190119085940 34 75 7.0 12.0 0.00 0.01 0.00 88 1014.6
20190119085441 34 67 7.0 12.0 0.00 0.01 0.00 88 1014.8
20190119084938 34 96 6.0 12.0 0.00 0.01 0.00 88 1015.0
20190119084440 34 92 6.0 10.0 0.00 0.01 0.00 88 1014.9
20190119083938 34 73 6.0 10.0 0.00 0.01 0.00 88 1015.0
20190119083438 34 78 6.0 10.0 0.00 0.01 0.00 88 1015.0
20190119082938 34 68 7.0 11.0 0.00 0.01 0.00 88 1014.8
20190119082439 34 76 7.0 13.0 0.00 0.01 0.00 88 1015.0
20190119081938 34 74 8.0 13.0 0.00 0.01 0.00 88 1015.1
20190119081438 34 76 9.0 14.0 0.00 0.01 0.00 88 1014.8
20190119080938 34 101 8.0 14.0 0.00 0.01 0.00 88 1014.9
20190119080437 34 74 8.0 12.0 0.00 0.01 0.00 88 1014.8
20190119075936 34 91 9.0 14.0 0.00 0.01 0.00 88 1014.8
20190119075437 34 92 9.0 14.0 0.00 0.01 0.00 88 1014.5
20190119074937 34 96 9.0 13.0 0.00 0.01 0.00 88 1014.4
20190119074437 34 83 8.0 12.0 0.00 0.01 0.00 87 1014.3
20190119073936 34 84 8.0 12.0 0.00 0.01 0.00 88 1014.3
20190119073436 34 80 7.0 11.0 0.00 0.01 0.00 87 1014.3
20190119072936 34 98 7.0 11.0 0.00 0.01 0.00 87 1014.4
20190119072436 34 61 7.0 11.0 0.00 0.01 0.00 88 1014.4
20190119071935 34 65 7.0 12.0 0.00 0.01 0.00 88 1014.3
20190119071436 34 38 7.0 12.0 0.00 0.01 0.00 87 1014.2
20190119070934 34 71 8.0 12.0 0.00 0.01 0.00 87 1014.2
20190119070434 34 82 9.0 13.0 0.00 0.01 0.00 87 1014.5
20190119065934 34 79 8.0 13.0 0.00 0.01 0.00 87 1014.7
20190119065434 34 78 7.0 13.0 0.00 0.01 0.00 87 1014.9
20190119064934 34 72 7.0 12.0 0.00 0.01 0.00 87 1014.8
20190119064434 34 56 6.0 12.0 0.00 0.01 0.00 87 1014.8
20190119063933 34 117 7.0 12.0 0.00 0.01 0.00 87 1014.9
20190119063434 34 105 6.0 11.0 0.00 0.01 0.00 88 1015.1
20190119062934 34 87 6.0 11.0 0.00 0.01 0.00 88 1015.1
20190119062434 34 105 6.0 10.0 0.00 0.01 0.00 88 1015.1
20190119061934 34 74 7.0 12.0 0.00 0.01 0.00 88 1014.9
20190119061432 34 86 8.0 12.0 0.00 0.01 0.00 88 1014.7
20190119060932 34 99 8.0 13.0 0.00 0.01 0.00 88 1014.7
20190119060432 34 83 8.0 13.0 0.00 0.01 0.00 88 1014.8
20190119055931 34 115 9.0 15.0 0.00 0.01 0.00 88 1014.8
20190119055431 33 82 9.0 16.0 0.00 0.01 0.00 88 1014.5
20190119054931 34 57 9.0 16.0 0.00 0.01 0.00 88 1014.6
20190119054432 34 69 8.0 12.0 0.00 0.01 0.00 88 1015.3